Αρχική σελίδα
METAR-TAF:

METAR-TAF

Αεροδρόμια :

Νήσος Ουέηκ, Ηνωμένες Πολιτείες Αμερικής

γεωγραφικό πλάτος: 19-17N, γεωγραφικό μήκος: 166-39E, υψόμετρο: 4 μ

Παρών καιρός

Η αναφορά έγινε 22 λεπτά πριν, στις 02:05 UTC
Άνεμος 12 kt από BA
Θερμοκρασία 30°C
Υγρασία 62%
Πίεση 1015 hPa
Ορατότητα: 14.5 χλμ
Διάσπαρτα νέφη σε ύψος 2200 πόδια

METAR: PWAK 150205Z AUTO 04012KT 9SM SCT022 30/22 A2996 RMK AO2 SLP151

Χρόνος: 14:27 (02:27 UTC)

Πρόγνωση Καιρού

Η αναφορά έγινε 4 ώρες και 27 λεπτά πριν, στις 22:00 UTC
Η πρόγνωση ισχύει από τις 14 στις 22 UTC έως τις 16 στις 04 UTC
Άνεμος 13 kt από Α/BA
Ορατότητα 10 χλμ και άνω
Διάσπαρτα νέφη σε ύψος 2200 πόδια

TAF: PWAK 142200Z 1422/1604 06013KT 9999 SCT022 QNH2993INS TX32/1501Z TN25/1517Z FOR MIL USE ONLY

Μετεωρολογικές αναφορές και προγνώσεις για περισσότερα από 4000 αεροδρόμια (δελτία METAR και TAF).

Οι διαθέσιμοι σταθμοί απεικονίζονται στο χάρτη με κίτρινες και κόκκινες κουκκίδες.

Μετακινήστε το ποντίκι πάνω από τις κουκκίδες για να δείτε το όνομα του σταθμού.

Στη συνέχεια, κάντε κλικ για να δείτε τις μετεωρολογικές αναφορές και τις προγνώσεις καιρού.

Για να αλλάξετε το χάρτη: κάντε κλικ στα πράσινα κουμπιά με τον μαύρο σταυρό για να ζουμάρετε, στο πράσινο κουμπί με την παύλα για να αφαιρέσετε το ζουμ ή στα πράσινα βέλη για να αντιπαραβάλλετε χάρτες.


METAR-TAF: